This is the latest recevied weather packets stored in our database for station/object M9XDX-WX. If no packets are shown the sender has not sent any weather packets the latest 10 day(s).
| Time | Temp. | Humidity | Pressure | Rain* | Wind** | Luminosity | Snow |
|---|---|---|---|---|---|---|---|
| 1777338603 | 10.56° C | 77% | 1023.7 hPa | 0 mm | - | 0 W/m² | - |
| 1777338140 | 10.56° C | 78% | 1023.9 hPa | 0 mm | - | 0 W/m² | - |
| 1777332139 | 11.11° C | 77% | 1023.8 hPa | 0 mm | - | 0 W/m² | - |
| 1777326138 | 12.78° C | 71% | 1023.7 hPa | 0 mm | - | 0 W/m² | - |
| 1777321203 | 15° C | 60% | 1023 hPa | 0 mm | - | 0 W/m² | - |
| 1777320603 | 15° C | 58% | 1022.9 hPa | 0 mm | - | 0 W/m² | - |
| 1777314603 | 17.22° C | 58% | 1022.2 hPa | 0 mm | - | 23 W/m² | - |
| 1777310403 | 18.89° C | 50% | 1021.9 hPa | 0 mm | - | 126 W/m² | - |
| 1777308603 | 18.89° C | 47% | 1022 hPa | 0 mm | - | 150 W/m² | - |
| 1777307538 | 18.89° C | 46% | 1021.8 hPa | 0 mm | - | 145 W/m² | - |
| 1777306203 | 20° C | 37% | 1021.6 hPa | 0 mm | - | 384 W/m² | - |
| 1777305003 | 19.44° C | 39% | 1022 hPa | 0 mm | - | 160 W/m² | - |
| 1777300938 | 20° C | 41% | 1022.4 hPa | 0 mm | - | 692 W/m² | - |
| 1777294203 | 20° C | 46% | 1023.2 hPa | 0 mm | - | 761 W/m² | - |
| 1777288937 | 18.33° C | 44% | 1023.8 hPa | 0 mm | - | 749 W/m² | - |
| 1777287003 | 17.78° C | 47% | 1023.8 hPa | 0 mm | - | 714 W/m² | - |
| 1777285803 | 17.22° C | 53% | 1024 hPa | 0 mm | - | 674 W/m² | - |
| 1777282203 | 16.11° C | 60% | 1024.1 hPa | 0 mm | - | 550 W/m² | - |
| 1777278003 | 13.33° C | 65% | 1024.2 hPa | 0 mm | - | 374 W/m² | - |
| 1777275003 | 12.22° C | 71% | 1024 hPa | 0 mm | - | 298 W/m² | - |
| 1777271403 | 10.56° C | 71% | 1023.7 hPa | 0 mm | - | 99 W/m² | - |
| 1777270803 | 10.56° C | 71% | 1024 hPa | 0 mm | - | 89 W/m² | - |
| 1777264803 | 8.33° C | 78% | 1023.3 hPa | 0 mm | - | 1 W/m² | - |
| 1777263603 | 8.33° C | 78% | 1023.6 hPa | 0 mm | - | 0 W/m² | - |
| 1777261803 | 8.33° C | 78% | 1023.5 hPa | 0 mm | - | 0 W/m² | - |
* Rain latest hour (hover to see other rain measurements)
** Current wind speed in m/s (hover to see current wind gust speed)